sensor_id;sensor_type;location;lat;lon;timestamp;temperature;humidity
27619;DHT22;15039;50.830;4.730;2022-10-31T00:00:08;15.20;99.90
27619;DHT22;15039;50.830;4.730;2022-10-31T00:02:34;15.30;99.90
27619;DHT22;15039;50.830;4.730;2022-10-31T00:05:00;15.20;99.90
27619;DHT22;15039;50.830;4.730;2022-10-31T00:07:25;15.30;99.90
27619;DHT22;15039;50.830;4.730;2022-10-31T00:09:51;15.20;99.90
27619;DHT22;15039;50.830;4.730;2022-10-31T00:12:16;15.10;99.90
27619;DHT22;15039;50.830;4.730;2022-10-31T00:14:42;15.10;99.90
27619;DHT22;15039;50.830;4.730;2022-10-31T00:17:07;15.10;99.90
27619;DHT22;15039;50.830;4.730;2022-10-31T00:19:34;15.00;99.90
27619;DHT22;15039;50.830;4.730;2022-10-31T00:22:00;15.00;99.90
27619;DHT22;15039;50.830;4.730;2022-10-31T00:24:25;15.00;99.90
27619;DHT22;15039;50.830;4.730;2022-10-31T00:26:51;15.00;99.90
27619;DHT22;15039;50.830;4.730;2022-10-31T00:29:20;14.90;99.90
27619;DHT22;15039;50.830;4.730;2022-10-31T00:31:46;14.90;99.90
27619;DHT22;15039;50.830;4.730;2022-10-31T00:34:15;14.80;99.90
27619;DHT22;15039;50.830;4.730;2022-10-31T00:36:40;14.70;99.90
27619;DHT22;15039;50.830;4.730;2022-10-31T00:39:06;14.80;99.90
27619;DHT22;15039;50.830;4.730;2022-10-31T00:41:31;14.90;99.90
27619;DHT22;15039;50.830;4.730;2022-10-31T00:43:57;14.80;99.90
27619;DHT22;15039;50.830;4.730;2022-10-31T00:46:26;14.80;99.90
27619;DHT22;15039;50.830;4.730;2022-10-31T00:48:51;14.70;99.90
27619;DHT22;15039;50.830;4.730;2022-10-31T00:51:24;14.70;99.90
27619;DHT22;15039;50.830;4.730;2022-10-31T00:53:51;14.70;99.90
27619;DHT22;15039;50.830;4.730;2022-10-31T00:56:16;14.60;99.90
27619;DHT22;15039;50.830;4.730;2022-10-31T00:58:42;14.60;99.90
27619;DHT22;15039;50.830;4.730;2022-10-31T01:01:08;14.50;99.90
27619;DHT22;15039;50.830;4.730;2022-10-31T01:03:34;14.50;99.90
27619;DHT22;15039;50.830;4.730;2022-10-31T01:06:03;14.50;99.90
27619;DHT22;15039;50.830;4.730;2022-10-31T01:08:30;14.60;99.90
27619;DHT22;15039;50.830;4.730;2022-10-31T01:11:17;14.70;99.90
27619;DHT22;15039;50.830;4.730;2022-10-31T01:13:44;14.70;99.90
27619;DHT22;15039;50.830;4.730;2022-10-31T01:16:12;14.60;99.90
27619;DHT22;15039;50.830;4.730;2022-10-31T01:18:42;14.60;99.90
27619;DHT22;15039;50.830;4.730;2022-10-31T01:21:13;14.50;99.90
27619;DHT22;15039;50.830;4.730;2022-10-31T01:23:39;14.60;99.90
27619;DHT22;15039;50.830;4.730;2022-10-31T01:28:39;14.50;99.90
27619;DHT22;15039;50.830;4.730;2022-10-31T01:31:08;14.40;99.90
27619;DHT22;15039;50.830;4.730;2022-10-31T01:33:35;14.40;99.90
27619;DHT22;15039;50.830;4.730;2022-10-31T01:36:22;14.30;99.90
27619;DHT22;15039;50.830;4.730;2022-10-31T01:38:48;14.20;99.90
27619;DHT22;15039;50.830;4.730;2022-10-31T01:41:18;14.10;99.90
27619;DHT22;15039;50.830;4.730;2022-10-31T01:46:22;14.00;99.90
27619;DHT22;15039;50.830;4.730;2022-10-31T01:48:51;14.00;99.90
27619;DHT22;15039;50.830;4.730;2022-10-31T01:51:19;13.90;99.90
27619;DHT22;15039;50.830;4.730;2022-10-31T01:53:47;13.90;99.90
27619;DHT22;15039;50.830;4.730;2022-10-31T01:56:15;13.90;99.90
27619;DHT22;15039;50.830;4.730;2022-10-31T01:58:42;13.90;99.90
27619;DHT22;15039;50.830;4.730;2022-10-31T02:01:14;13.90;99.90
27619;DHT22;15039;50.830;4.730;2022-10-31T02:03:40;13.80;99.90
27619;DHT22;15039;50.830;4.730;2022-10-31T02:06:10;13.70;99.90
27619;DHT22;15039;50.830;4.730;2022-10-31T02:08:39;13.70;99.90
27619;DHT22;15039;50.830;4.730;2022-10-31T02:11:05;13.70;99.90
27619;DHT22;15039;50.830;4.730;2022-10-31T02:13:34;13.60;99.90
27619;DHT22;15039;50.830;4.730;2022-10-31T02:16:00;13.50;99.90
27619;DHT22;15039;50.830;4.730;2022-10-31T02:18:29;13.40;99.90
27619;DHT22;15039;50.830;4.730;2022-10-31T02:21:11;13.40;99.90
27619;DHT22;15039;50.830;4.730;2022-10-31T02:32:45;13.10;99.90
27619;DHT22;15039;50.830;4.730;2022-10-31T02:35:39;13.00;99.90
27619;DHT22;15039;50.830;4.730;2022-10-31T02:49:06;13.00;99.90
27619;DHT22;15039;50.830;4.730;2022-10-31T02:51:33;13.10;99.90
27619;DHT22;15039;50.830;4.730;2022-10-31T02:53:59;13.00;99.90
27619;DHT22;15039;50.830;4.730;2022-10-31T02:56:25;13.10;99.90
27619;DHT22;15039;50.830;4.730;2022-10-31T02:59:00;13.20;99.90
27619;DHT22;15039;50.830;4.730;2022-10-31T03:04:50;13.30;99.90
27619;DHT22;15039;50.830;4.730;2022-10-31T03:07:28;13.30;99.90
27619;DHT22;15039;50.830;4.730;2022-10-31T03:13:10;13.30;99.90
27619;DHT22;15039;50.830;4.730;2022-10-31T03:15:43;13.30;99.90
27619;DHT22;15039;50.830;4.730;2022-10-31T03:21:16;13.30;99.90
27619;DHT22;15039;50.830;4.730;2022-10-31T03:23:46;13.30;99.90
27619;DHT22;15039;50.830;4.730;2022-10-31T03:26:14;13.40;99.90
27619;DHT22;15039;50.830;4.730;2022-10-31T03:28:57;13.40;99.90
27619;DHT22;15039;50.830;4.730;2022-10-31T03:31:35;13.40;99.90
27619;DHT22;15039;50.830;4.730;2022-10-31T03:34:03;13.30;99.90
27619;DHT22;15039;50.830;4.730;2022-10-31T03:36:30;13.40;99.90
27619;DHT22;15039;50.830;4.730;2022-10-31T03:39:00;13.30;99.90
27619;DHT22;15039;50.830;4.730;2022-10-31T03:41:29;13.30;99.90
27619;DHT22;15039;50.830;4.730;2022-10-31T03:44:02;13.30;99.90
27619;DHT22;15039;50.830;4.730;2022-10-31T03:46:33;13.30;99.90
27619;DHT22;15039;50.830;4.730;2022-10-31T03:49:02;13.40;99.90
27619;DHT22;15039;50.830;4.730;2022-10-31T03:54:49;13.40;99.90
27619;DHT22;15039;50.830;4.730;2022-10-31T03:57:32;13.40;99.90
27619;DHT22;15039;50.830;4.730;2022-10-31T04:00:13;13.40;99.90
27619;DHT22;15039;50.830;4.730;2022-10-31T04:02:42;13.50;99.90
27619;DHT22;15039;50.830;4.730;2022-10-31T04:05:11;13.50;99.90
27619;DHT22;15039;50.830;4.730;2022-10-31T04:07:42;13.50;99.90
27619;DHT22;15039;50.830;4.730;2022-10-31T04:10:13;13.40;99.90
27619;DHT22;15039;50.830;4.730;2022-10-31T04:12:38;13.30;99.90
27619;DHT22;15039;50.830;4.730;2022-10-31T04:15:06;13.30;99.90
27619;DHT22;15039;50.830;4.730;2022-10-31T04:17:42;13.20;99.90
27619;DHT22;15039;50.830;4.730;2022-10-31T04:20:09;13.10;99.90
27619;DHT22;15039;50.830;4.730;2022-10-31T04:22:35;13.00;99.90
27619;DHT22;15039;50.830;4.730;2022-10-31T04:25:01;13.00;99.90
27619;DHT22;15039;50.830;4.730;2022-10-31T04:27:27;13.00;99.90
27619;DHT22;15039;50.830;4.730;2022-10-31T04:29:52;13.00;99.90
27619;DHT22;15039;50.830;4.730;2022-10-31T04:32:18;12.90;99.90
27619;DHT22;15039;50.830;4.730;2022-10-31T04:34:43;12.90;99.90
27619;DHT22;15039;50.830;4.730;2022-10-31T04:37:12;12.70;99.90
27619;DHT22;15039;50.830;4.730;2022-10-31T04:39:37;12.80;99.90
27619;DHT22;15039;50.830;4.730;2022-10-31T04:42:03;12.90;99.90
27619;DHT22;15039;50.830;4.730;2022-10-31T04:44:28;12.90;99.90
27619;DHT22;15039;50.830;4.730;2022-10-31T04:46:54;12.90;99.90
27619;DHT22;15039;50.830;4.730;2022-10-31T04:49:20;13.00;99.90
27619;DHT22;15039;50.830;4.730;2022-10-31T04:51:48;13.00;99.90
27619;DHT22;15039;50.830;4.730;2022-10-31T04:54:20;12.90;99.90
27619;DHT22;15039;50.830;4.730;2022-10-31T04:56:50;12.90;99.90
27619;DHT22;15039;50.830;4.730;2022-10-31T04:59:16;13.00;99.90
27619;DHT22;15039;50.830;4.730;2022-10-31T05:01:42;12.90;99.90
27619;DHT22;15039;50.830;4.730;2022-10-31T05:04:08;12.90;99.90
27619;DHT22;15039;50.830;4.730;2022-10-31T05:06:36;12.90;99.90
27619;DHT22;15039;50.830;4.730;2022-10-31T05:09:02;12.90;99.90
27619;DHT22;15039;50.830;4.730;2022-10-31T05:11:28;12.90;99.90
27619;DHT22;15039;50.830;4.730;2022-10-31T05:13:54;12.90;99.90
27619;DHT22;15039;50.830;4.730;2022-10-31T05:16:20;12.90;99.90
27619;DHT22;15039;50.830;4.730;2022-10-31T05:18:45;13.00;99.90
27619;DHT22;15039;50.830;4.730;2022-10-31T05:21:11;13.00;99.90
27619;DHT22;15039;50.830;4.730;2022-10-31T05:23:37;13.10;99.90
27619;DHT22;15039;50.830;4.730;2022-10-31T05:26:05;13.00;99.90
27619;DHT22;15039;50.830;4.730;2022-10-31T05:28:31;13.00;99.90
27619;DHT22;15039;50.830;4.730;2022-10-31T05:30:56;13.10;99.90
27619;DHT22;15039;50.830;4.730;2022-10-31T05:33:22;13.10;99.90
27619;DHT22;15039;50.830;4.730;2022-10-31T05:35:48;13.20;99.90
27619;DHT22;15039;50.830;4.730;2022-10-31T05:38:13;13.20;99.90
27619;DHT22;15039;50.830;4.730;2022-10-31T05:40:39;13.20;99.90
27619;DHT22;15039;50.830;4.730;2022-10-31T05:43:09;13.20;99.90
27619;DHT22;15039;50.830;4.730;2022-10-31T05:45:34;13.10;99.90
27619;DHT22;15039;50.830;4.730;2022-10-31T05:48:01;13.10;99.90
27619;DHT22;15039;50.830;4.730;2022-10-31T05:50:29;13.10;99.90
27619;DHT22;15039;50.830;4.730;2022-10-31T05:53:03;13.10;99.90
27619;DHT22;15039;50.830;4.730;2022-10-31T05:55:30;13.20;99.90
27619;DHT22;15039;50.830;4.730;2022-10-31T05:57:56;13.10;99.90
27619;DHT22;15039;50.830;4.730;2022-10-31T06:00:22;13.20;99.90
27619;DHT22;15039;50.830;4.730;2022-10-31T06:02:48;13.20;99.90
27619;DHT22;15039;50.830;4.730;2022-10-31T06:05:20;13.30;99.90
27619;DHT22;15039;50.830;4.730;2022-10-31T06:07:45;13.40;99.90
27619;DHT22;15039;50.830;4.730;2022-10-31T06:10:11;13.30;99.90
27619;DHT22;15039;50.830;4.730;2022-10-31T06:12:37;13.20;99.90
27619;DHT22;15039;50.830;4.730;2022-10-31T06:15:05;13.10;99.90
27619;DHT22;15039;50.830;4.730;2022-10-31T06:17:31;13.10;99.90
27619;DHT22;15039;50.830;4.730;2022-10-31T06:19:57;13.10;99.90
27619;DHT22;15039;50.830;4.730;2022-10-31T06:22:22;13.10;99.90
27619;DHT22;15039;50.830;4.730;2022-10-31T06:24:50;13.20;99.90
27619;DHT22;15039;50.830;4.730;2022-10-31T06:27:15;13.20;99.90
27619;DHT22;15039;50.830;4.730;2022-10-31T06:29:41;13.20;99.90
27619;DHT22;15039;50.830;4.730;2022-10-31T06:32:10;13.20;99.90
27619;DHT22;15039;50.830;4.730;2022-10-31T06:34:36;13.20;99.90
27619;DHT22;15039;50.830;4.730;2022-10-31T06:37:02;13.20;99.90
27619;DHT22;15039;50.830;4.730;2022-10-31T06:39:28;13.20;99.90
27619;DHT22;15039;50.830;4.730;2022-10-31T06:41:53;13.30;99.90
27619;DHT22;15039;50.830;4.730;2022-10-31T06:44:19;13.30;99.90
27619;DHT22;15039;50.830;4.730;2022-10-31T06:46:46;13.20;99.90
27619;DHT22;15039;50.830;4.730;2022-10-31T06:49:13;13.20;99.90
27619;DHT22;15039;50.830;4.730;2022-10-31T06:51:39;13.30;99.90
27619;DHT22;15039;50.830;4.730;2022-10-31T06:54:04;13.20;99.90
27619;DHT22;15039;50.830;4.730;2022-10-31T06:56:32;13.20;99.90
27619;DHT22;15039;50.830;4.730;2022-10-31T06:58:58;13.20;99.90
27619;DHT22;15039;50.830;4.730;2022-10-31T07:01:23;13.20;99.90
27619;DHT22;15039;50.830;4.730;2022-10-31T07:03:49;13.20;99.90
27619;DHT22;15039;50.830;4.730;2022-10-31T07:06:15;13.20;99.90
27619;DHT22;15039;50.830;4.730;2022-10-31T07:08:40;13.30;99.90
27619;DHT22;15039;50.830;4.730;2022-10-31T07:11:08;13.30;99.90
27619;DHT22;15039;50.830;4.730;2022-10-31T07:13:33;13.40;99.90
27619;DHT22;15039;50.830;4.730;2022-10-31T07:16:01;13.50;99.90
27619;DHT22;15039;50.830;4.730;2022-10-31T07:18:27;13.70;99.90
27619;DHT22;15039;50.830;4.730;2022-10-31T07:20:53;13.70;99.90
27619;DHT22;15039;50.830;4.730;2022-10-31T07:23:19;13.60;99.90
27619;DHT22;15039;50.830;4.730;2022-10-31T07:25:45;13.70;99.90
27619;DHT22;15039;50.830;4.730;2022-10-31T07:28:11;13.80;99.90
27619;DHT22;15039;50.830;4.730;2022-10-31T07:30:37;13.60;99.90
27619;DHT22;15039;50.830;4.730;2022-10-31T07:33:04;13.60;99.90
27619;DHT22;15039;50.830;4.730;2022-10-31T07:35:31;13.60;99.90
27619;DHT22;15039;50.830;4.730;2022-10-31T07:37:57;13.70;99.90
27619;DHT22;15039;50.830;4.730;2022-10-31T07:40:24;13.80;99.90
27619;DHT22;15039;50.830;4.730;2022-10-31T07:42:52;13.90;99.90
27619;DHT22;15039;50.830;4.730;2022-10-31T07:45:20;13.90;99.90
27619;DHT22;15039;50.830;4.730;2022-10-31T07:47:47;13.80;99.90
27619;DHT22;15039;50.830;4.730;2022-10-31T07:50:19;13.80;99.90
27619;DHT22;15039;50.830;4.730;2022-10-31T07:52:45;13.70;99.90
27619;DHT22;15039;50.830;4.730;2022-10-31T07:55:11;13.80;99.90
27619;DHT22;15039;50.830;4.730;2022-10-31T07:57:37;13.80;99.90
27619;DHT22;15039;50.830;4.730;2022-10-31T08:00:04;13.90;99.90
27619;DHT22;15039;50.830;4.730;2022-10-31T08:02:30;14.00;99.90
27619;DHT22;15039;50.830;4.730;2022-10-31T08:05:00;14.00;99.90
27619;DHT22;15039;50.830;4.730;2022-10-31T08:07:28;14.20;99.90
27619;DHT22;15039;50.830;4.730;2022-10-31T08:09:55;14.30;99.90
27619;DHT22;15039;50.830;4.730;2022-10-31T08:12:21;14.40;99.90
27619;DHT22;15039;50.830;4.730;2022-10-31T08:14:47;14.50;99.90
27619;DHT22;15039;50.830;4.730;2022-10-31T08:17:13;14.50;99.90
27619;DHT22;15039;50.830;4.730;2022-10-31T08:19:39;14.60;99.90
27619;DHT22;15039;50.830;4.730;2022-10-31T08:22:06;14.70;99.90
27619;DHT22;15039;50.830;4.730;2022-10-31T08:24:31;14.60;99.90
27619;DHT22;15039;50.830;4.730;2022-10-31T08:26:57;14.70;99.90
27619;DHT22;15039;50.830;4.730;2022-10-31T08:29:22;14.70;99.90
27619;DHT22;15039;50.830;4.730;2022-10-31T08:31:48;14.80;99.90
27619;DHT22;15039;50.830;4.730;2022-10-31T08:34:14;14.80;99.90
27619;DHT22;15039;50.830;4.730;2022-10-31T08:36:40;14.70;99.90
27619;DHT22;15039;50.830;4.730;2022-10-31T08:39:08;14.80;99.90
27619;DHT22;15039;50.830;4.730;2022-10-31T08:41:35;14.90;99.90
27619;DHT22;15039;50.830;4.730;2022-10-31T08:44:00;15.20;99.90
27619;DHT22;15039;50.830;4.730;2022-10-31T08:46:27;15.20;99.90
27619;DHT22;15039;50.830;4.730;2022-10-31T08:48:53;15.10;99.90
27619;DHT22;15039;50.830;4.730;2022-10-31T08:51:18;15.10;99.90
27619;DHT22;15039;50.830;4.730;2022-10-31T08:53:46;15.20;99.90
27619;DHT22;15039;50.830;4.730;2022-10-31T08:56:11;15.30;99.90
27619;DHT22;15039;50.830;4.730;2022-10-31T08:58:37;15.40;99.90
27619;DHT22;15039;50.830;4.730;2022-10-31T09:01:03;15.50;99.90
27619;DHT22;15039;50.830;4.730;2022-10-31T09:03:30;15.60;99.90
27619;DHT22;15039;50.830;4.730;2022-10-31T09:06:01;15.70;99.90
27619;DHT22;15039;50.830;4.730;2022-10-31T09:08:30;15.70;99.90
27619;DHT22;15039;50.830;4.730;2022-10-31T09:10:56;15.90;99.90
27619;DHT22;15039;50.830;4.730;2022-10-31T09:13:23;15.90;99.90
27619;DHT22;15039;50.830;4.730;2022-10-31T09:15:50;15.90;99.90
27619;DHT22;15039;50.830;4.730;2022-10-31T09:18:21;16.00;99.90
27619;DHT22;15039;50.830;4.730;2022-10-31T09:20:48;16.20;99.90
27619;DHT22;15039;50.830;4.730;2022-10-31T09:23:16;16.30;99.90
27619;DHT22;15039;50.830;4.730;2022-10-31T09:25:43;16.30;99.90
27619;DHT22;15039;50.830;4.730;2022-10-31T09:28:14;16.20;99.90
27619;DHT22;15039;50.830;4.730;2022-10-31T09:30:40;16.30;99.90
27619;DHT22;15039;50.830;4.730;2022-10-31T09:33:13;16.40;99.90
27619;DHT22;15039;50.830;4.730;2022-10-31T09:35:40;16.50;99.90
27619;DHT22;15039;50.830;4.730;2022-10-31T09:38:09;16.50;99.90
27619;DHT22;15039;50.830;4.730;2022-10-31T09:43:17;16.80;99.90
27619;DHT22;15039;50.830;4.730;2022-10-31T09:51:08;16.70;99.90
27619;DHT22;15039;50.830;4.730;2022-10-31T09:56:16;16.80;99.90
27619;DHT22;15039;50.830;4.730;2022-10-31T09:58:45;16.90;99.90
27619;DHT22;15039;50.830;4.730;2022-10-31T10:01:28;17.10;99.90
27619;DHT22;15039;50.830;4.730;2022-10-31T10:04:00;17.20;99.90
27619;DHT22;15039;50.830;4.730;2022-10-31T10:06:33;17.30;99.90
27619;DHT22;15039;50.830;4.730;2022-10-31T10:08:59;17.30;99.90
27619;DHT22;15039;50.830;4.730;2022-10-31T10:11:45;17.30;99.90
27619;DHT22;15039;50.830;4.730;2022-10-31T10:22:30;17.50;99.90
27619;DHT22;15039;50.830;4.730;2022-10-31T10:25:20;17.40;99.90
27619;DHT22;15039;50.830;4.730;2022-10-31T10:30:42;17.50;99.90
27619;DHT22;15039;50.830;4.730;2022-10-31T10:33:14;17.50;99.90
27619;DHT22;15039;50.830;4.730;2022-10-31T10:36:16;17.50;99.90
27619;DHT22;15039;50.830;4.730;2022-10-31T10:38:53;17.60;99.90
27619;DHT22;15039;50.830;4.730;2022-10-31T10:41:23;17.60;99.90
27619;DHT22;15039;50.830;4.730;2022-10-31T10:43:50;17.60;99.90
27619;DHT22;15039;50.830;4.730;2022-10-31T10:54:44;18.00;99.90
27619;DHT22;15039;50.830;4.730;2022-10-31T11:00:31;18.30;99.90
27619;DHT22;15039;50.830;4.730;2022-10-31T11:02:59;18.40;99.90
27619;DHT22;15039;50.830;4.730;2022-10-31T11:08:07;18.00;99.90
27619;DHT22;15039;50.830;4.730;2022-10-31T11:10:34;18.00;99.90
27619;DHT22;15039;50.830;4.730;2022-10-31T11:16:05;18.10;99.90
27619;DHT22;15039;50.830;4.730;2022-10-31T11:18:41;18.20;99.90
27619;DHT22;15039;50.830;4.730;2022-10-31T11:23:45;18.20;99.90
27619;DHT22;15039;50.830;4.730;2022-10-31T11:26:19;18.20;99.90
27619;DHT22;15039;50.830;4.730;2022-10-31T11:28:57;18.20;99.90
27619;DHT22;15039;50.830;4.730;2022-10-31T11:31:24;18.20;99.90
27619;DHT22;15039;50.830;4.730;2022-10-31T11:34:00;18.30;99.90
27619;DHT22;15039;50.830;4.730;2022-10-31T11:36:32;18.40;99.90
27619;DHT22;15039;50.830;4.730;2022-10-31T11:39:02;18.50;99.90
27619;DHT22;15039;50.830;4.730;2022-10-31T11:41:29;18.60;99.90
27619;DHT22;15039;50.830;4.730;2022-10-31T11:44:03;18.80;99.90
27619;DHT22;15039;50.830;4.730;2022-10-31T11:46:43;18.70;99.90
27619;DHT22;15039;50.830;4.730;2022-10-31T11:49:38;18.60;99.90
27619;DHT22;15039;50.830;4.730;2022-10-31T11:52:08;18.50;99.90
27619;DHT22;15039;50.830;4.730;2022-10-31T11:54:42;18.50;99.90
27619;DHT22;15039;50.830;4.730;2022-10-31T11:57:30;18.60;99.90
27619;DHT22;15039;50.830;4.730;2022-10-31T11:59:59;18.70;99.90
27619;DHT22;15039;50.830;4.730;2022-10-31T12:02:25;18.60;99.90
27619;DHT22;15039;50.830;4.730;2022-10-31T12:05:10;18.60;99.90
27619;DHT22;15039;50.830;4.730;2022-10-31T12:07:42;18.70;99.90
27619;DHT22;15039;50.830;4.730;2022-10-31T12:10:12;18.70;99.90
27619;DHT22;15039;50.830;4.730;2022-10-31T12:16:15;18.80;99.90
27619;DHT22;15039;50.830;4.730;2022-10-31T12:38:06;19.20;99.90
27619;DHT22;15039;50.830;4.730;2022-10-31T12:46:00;19.10;99.90
27619;DHT22;15039;50.830;4.730;2022-10-31T12:51:47;19.30;99.90
27619;DHT22;15039;50.830;4.730;2022-10-31T13:02:18;19.40;99.90
27619;DHT22;15039;50.830;4.730;2022-10-31T13:05:05;19.50;99.90
27619;DHT22;15039;50.830;4.730;2022-10-31T13:10:19;19.50;99.90
27619;DHT22;15039;50.830;4.730;2022-10-31T13:12:51;19.50;99.90
27619;DHT22;15039;50.830;4.730;2022-10-31T13:15:22;19.50;99.90
27619;DHT22;15039;50.830;4.730;2022-10-31T13:18:03;19.60;99.90
27619;DHT22;15039;50.830;4.730;2022-10-31T13:20:50;19.70;99.90
27619;DHT22;15039;50.830;4.730;2022-10-31T13:25:52;19.50;99.90
27619;DHT22;15039;50.830;4.730;2022-10-31T13:31:09;19.50;99.90
27619;DHT22;15039;50.830;4.730;2022-10-31T13:33:49;19.50;99.90
27619;DHT22;15039;50.830;4.730;2022-10-31T13:36:50;19.50;99.90
27619;DHT22;15039;50.830;4.730;2022-10-31T13:45:49;19.20;99.90
27619;DHT22;15039;50.830;4.730;2022-10-31T13:50:41;19.10;99.90
27619;DHT22;15039;50.830;4.730;2022-10-31T13:53:21;19.10;99.90
27619;DHT22;15039;50.830;4.730;2022-10-31T13:56:21;19.10;99.90
27619;DHT22;15039;50.830;4.730;2022-10-31T14:01:25;18.90;99.90
27619;DHT22;15039;50.830;4.730;2022-10-31T14:04:02;18.80;99.90
27619;DHT22;15039;50.830;4.730;2022-10-31T14:06:41;18.70;99.90
27619;DHT22;15039;50.830;4.730;2022-10-31T14:09:59;18.80;99.90
27619;DHT22;15039;50.830;4.730;2022-10-31T14:12:37;18.80;99.90
27619;DHT22;15039;50.830;4.730;2022-10-31T14:15:25;18.90;99.90
27619;DHT22;15039;50.830;4.730;2022-10-31T14:17:58;18.80;99.90
27619;DHT22;15039;50.830;4.730;2022-10-31T14:20:40;18.80;99.90
27619;DHT22;15039;50.830;4.730;2022-10-31T14:23:25;18.70;99.90
27619;DHT22;15039;50.830;4.730;2022-10-31T14:28:53;18.70;99.90
27619;DHT22;15039;50.830;4.730;2022-10-31T14:31:41;18.80;99.90
27619;DHT22;15039;50.830;4.730;2022-10-31T14:34:27;18.60;99.90
27619;DHT22;15039;50.830;4.730;2022-10-31T14:45:31;18.50;99.90
27619;DHT22;15039;50.830;4.730;2022-10-31T14:50:52;18.50;99.90
27619;DHT22;15039;50.830;4.730;2022-10-31T14:55:55;18.50;99.90
27619;DHT22;15039;50.830;4.730;2022-10-31T14:58:40;18.60;99.90
27619;DHT22;15039;50.830;4.730;2022-10-31T15:01:15;18.70;99.90
27619;DHT22;15039;50.830;4.730;2022-10-31T15:03:45;18.70;99.90
27619;DHT22;15039;50.830;4.730;2022-10-31T15:06:14;18.60;99.90
27619;DHT22;15039;50.830;4.730;2022-10-31T15:08:48;18.60;99.90
27619;DHT22;15039;50.830;4.730;2022-10-31T15:11:23;18.50;99.90
27619;DHT22;15039;50.830;4.730;2022-10-31T15:13:57;18.50;99.90
27619;DHT22;15039;50.830;4.730;2022-10-31T15:16:27;18.60;99.90
27619;DHT22;15039;50.830;4.730;2022-10-31T15:18:57;18.50;99.90
27619;DHT22;15039;50.830;4.730;2022-10-31T15:21:26;18.50;99.90
27619;DHT22;15039;50.830;4.730;2022-10-31T15:23:55;18.30;99.90
27619;DHT22;15039;50.830;4.730;2022-10-31T15:26:23;18.40;99.90
27619;DHT22;15039;50.830;4.730;2022-10-31T15:29:04;18.20;99.90
27619;DHT22;15039;50.830;4.730;2022-10-31T15:31:32;18.10;99.90
27619;DHT22;15039;50.830;4.730;2022-10-31T15:34:04;18.20;99.90
27619;DHT22;15039;50.830;4.730;2022-10-31T15:36:30;18.30;99.90
27619;DHT22;15039;50.830;4.730;2022-10-31T15:38:58;18.30;99.90
27619;DHT22;15039;50.830;4.730;2022-10-31T15:41:26;18.30;99.90
27619;DHT22;15039;50.830;4.730;2022-10-31T15:43:54;18.50;99.90
27619;DHT22;15039;50.830;4.730;2022-10-31T15:46:20;18.50;99.90
27619;DHT22;15039;50.830;4.730;2022-10-31T15:48:47;18.30;99.90
27619;DHT22;15039;50.830;4.730;2022-10-31T15:51:13;18.20;99.90
27619;DHT22;15039;50.830;4.730;2022-10-31T15:53:48;18.10;99.90
27619;DHT22;15039;50.830;4.730;2022-10-31T15:56:29;18.10;99.90
27619;DHT22;15039;50.830;4.730;2022-10-31T15:58:58;18.10;99.90
27619;DHT22;15039;50.830;4.730;2022-10-31T16:01:26;18.10;99.90
27619;DHT22;15039;50.830;4.730;2022-10-31T16:04:22;18.10;99.90
27619;DHT22;15039;50.830;4.730;2022-10-31T16:07:00;18.00;99.90
27619;DHT22;15039;50.830;4.730;2022-10-31T16:09:26;18.00;99.90
27619;DHT22;15039;50.830;4.730;2022-10-31T16:11:55;17.90;99.90
27619;DHT22;15039;50.830;4.730;2022-10-31T16:14:26;17.90;99.90
27619;DHT22;15039;50.830;4.730;2022-10-31T16:16:55;17.90;99.90
27619;DHT22;15039;50.830;4.730;2022-10-31T16:19:23;17.80;99.90
27619;DHT22;15039;50.830;4.730;2022-10-31T16:22:07;17.90;99.90
27619;DHT22;15039;50.830;4.730;2022-10-31T16:24:50;18.00;99.90
27619;DHT22;15039;50.830;4.730;2022-10-31T16:27:21;18.00;99.90
27619;DHT22;15039;50.830;4.730;2022-10-31T16:29:54;18.00;99.90
27619;DHT22;15039;50.830;4.730;2022-10-31T16:35:19;17.60;99.90
27619;DHT22;15039;50.830;4.730;2022-10-31T16:37:48;17.50;99.90
27619;DHT22;15039;50.830;4.730;2022-10-31T16:40:14;17.40;99.90
27619;DHT22;15039;50.830;4.730;2022-10-31T16:42:41;17.50;99.90
27619;DHT22;15039;50.830;4.730;2022-10-31T16:45:13;17.50;99.90
27619;DHT22;15039;50.830;4.730;2022-10-31T16:47:40;17.40;99.90
27619;DHT22;15039;50.830;4.730;2022-10-31T16:50:16;17.40;99.90
27619;DHT22;15039;50.830;4.730;2022-10-31T16:52:43;17.30;99.90
27619;DHT22;15039;50.830;4.730;2022-10-31T16:55:14;17.30;99.90
27619;DHT22;15039;50.830;4.730;2022-10-31T16:57:52;17.30;99.90
27619;DHT22;15039;50.830;4.730;2022-10-31T17:00:23;17.30;99.90
27619;DHT22;15039;50.830;4.730;2022-10-31T17:02:53;17.30;99.90
27619;DHT22;15039;50.830;4.730;2022-10-31T17:05:20;17.20;99.90
27619;DHT22;15039;50.830;4.730;2022-10-31T17:07:46;17.20;99.90
27619;DHT22;15039;50.830;4.730;2022-10-31T17:10:13;17.20;99.90
27619;DHT22;15039;50.830;4.730;2022-10-31T17:12:42;17.30;99.90
27619;DHT22;15039;50.830;4.730;2022-10-31T17:15:21;17.30;99.90
27619;DHT22;15039;50.830;4.730;2022-10-31T17:17:48;17.30;99.90
27619;DHT22;15039;50.830;4.730;2022-10-31T17:20:23;17.30;99.90
27619;DHT22;15039;50.830;4.730;2022-10-31T17:22:49;17.30;99.90
27619;DHT22;15039;50.830;4.730;2022-10-31T17:25:17;17.20;99.90
27619;DHT22;15039;50.830;4.730;2022-10-31T17:27:45;17.20;99.90
27619;DHT22;15039;50.830;4.730;2022-10-31T17:30:12;17.10;99.90
27619;DHT22;15039;50.830;4.730;2022-10-31T17:32:39;17.10;99.90
27619;DHT22;15039;50.830;4.730;2022-10-31T17:35:05;17.10;99.90
27619;DHT22;15039;50.830;4.730;2022-10-31T17:37:30;17.10;99.90
27619;DHT22;15039;50.830;4.730;2022-10-31T17:39:56;17.20;99.90
27619;DHT22;15039;50.830;4.730;2022-10-31T17:42:21;17.10;99.90
27619;DHT22;15039;50.830;4.730;2022-10-31T17:44:47;16.90;99.90
27619;DHT22;15039;50.830;4.730;2022-10-31T17:47:13;16.90;99.90
27619;DHT22;15039;50.830;4.730;2022-10-31T17:49:38;17.00;99.90
27619;DHT22;15039;50.830;4.730;2022-10-31T17:52:04;16.90;99.90
27619;DHT22;15039;50.830;4.730;2022-10-31T17:54:33;16.80;99.90
27619;DHT22;15039;50.830;4.730;2022-10-31T17:56:58;16.80;99.90
27619;DHT22;15039;50.830;4.730;2022-10-31T17:59:30;16.80;99.90
27619;DHT22;15039;50.830;4.730;2022-10-31T18:01:59;16.80;99.90
27619;DHT22;15039;50.830;4.730;2022-10-31T18:04:25;16.80;99.90
27619;DHT22;15039;50.830;4.730;2022-10-31T18:06:51;16.70;99.90
27619;DHT22;15039;50.830;4.730;2022-10-31T18:09:17;16.70;99.90
27619;DHT22;15039;50.830;4.730;2022-10-31T18:11:43;16.70;99.90
27619;DHT22;15039;50.830;4.730;2022-10-31T18:14:09;16.70;99.90
27619;DHT22;15039;50.830;4.730;2022-10-31T18:16:35;16.80;99.90
27619;DHT22;15039;50.830;4.730;2022-10-31T18:19:02;16.80;99.90
27619;DHT22;15039;50.830;4.730;2022-10-31T18:21:31;16.80;99.90
27619;DHT22;15039;50.830;4.730;2022-10-31T18:23:58;16.70;99.90